createdAt,value
2023-11-23T00:00:12.605Z,81.01
2023-11-23T00:02:41.408Z,81.31
2023-11-23T00:05:11.450Z,81.85
2023-11-23T00:07:39.830Z,82.68
2023-11-23T00:10:07.826Z,83.50
2023-11-23T00:12:34.698Z,84.78
2023-11-23T00:15:01.862Z,85.67
2023-11-23T00:17:31.829Z,85.94
2023-11-23T00:19:59.583Z,86.51
2023-11-23T00:22:27.642Z,86.16
2023-11-23T00:24:57.821Z,83.11
2023-11-23T00:27:24.723Z,82.59
2023-11-23T00:29:52.844Z,82.43
2023-11-23T00:32:20.786Z,82.26
2023-11-23T00:34:47.757Z,83.42
2023-11-23T00:37:14.609Z,83.81
2023-11-23T00:39:41.373Z,82.93
2023-11-23T00:42:08.160Z,84.09
2023-11-23T00:44:34.899Z,84.12
2023-11-23T00:47:01.891Z,83.51
2023-11-23T00:49:28.763Z,83.37
2023-11-23T00:51:55.722Z,84.94
2023-11-23T00:56:54.373Z,87.39
2023-11-23T00:59:21.272Z,87.93
2023-11-23T01:01:48.096Z,88.13
2023-11-23T01:04:14.880Z,88.21
2023-11-23T01:06:43.440Z,88.57
2023-11-23T01:09:11.029Z,89.74
2023-11-23T01:11:37.961Z,88.47
2023-11-23T01:14:04.812Z,88.62
2023-11-23T01:16:31.842Z,88.61
2023-11-23T01:18:58.798Z,88.61
2023-11-23T01:21:25.720Z,88.98
2023-11-23T01:23:52.420Z,89.74
2023-11-23T01:26:19.174Z,89.08
2023-11-23T01:28:45.841Z,88.80
2023-11-23T01:31:12.622Z,89.19
2023-11-23T01:33:39.411Z,89.82
2023-11-23T01:36:06.505Z,89.63
2023-11-23T01:38:33.501Z,88.85
2023-11-23T01:41:00.228Z,89.65
2023-11-23T01:43:27.081Z,90.13
2023-11-23T01:45:53.882Z,89.50
2023-11-23T01:48:21.592Z,90.17
2023-11-23T01:50:51.724Z,89.76
2023-11-23T01:56:01.729Z,88.86
2023-11-23T01:58:29.859Z,89.33
2023-11-23T02:00:56.753Z,90.15
2023-11-23T02:16:30.988Z,90.36
2023-11-23T02:19:05.416Z,89.93
2023-11-23T02:21:38.193Z,85.84
2023-11-23T02:24:12.912Z,85.89
2023-11-23T02:26:45.812Z,84.97
2023-11-23T02:29:18.582Z,84.63
2023-11-23T02:31:51.471Z,85.11
2023-11-23T02:34:24.258Z,84.22
2023-11-23T02:36:57.046Z,84.36
2023-11-23T02:42:01.945Z,83.82
2023-11-23T02:44:28.733Z,83.71
2023-11-23T02:46:55.426Z,83.18
2023-11-23T02:49:22.228Z,84.21
2023-11-23T02:51:49.114Z,85.00
2023-11-23T02:54:15.877Z,85.31
2023-11-23T02:56:42.623Z,84.89
2023-11-23T02:59:09.367Z,83.88
2023-11-23T03:01:36.254Z,84.33
2023-11-23T03:04:05.920Z,84.60
2023-11-23T03:06:32.971Z,85.88
2023-11-23T03:14:05.433Z,87.59
2023-11-23T03:16:32.148Z,88.79
2023-11-23T03:18:59.974Z,89.18
2023-11-23T03:21:26.879Z,90.07
2023-11-23T03:23:54.513Z,89.98
2023-11-23T03:28:54.370Z,87.52
2023-11-23T03:31:22.207Z,86.23
2023-11-23T03:38:58.952Z,84.57
2023-11-23T03:41:25.700Z,86.04
2023-11-23T03:43:52.397Z,87.02
2023-11-23T03:46:19.122Z,85.34
2023-11-23T03:48:45.853Z,85.32
2023-11-23T03:51:13.964Z,85.58
2023-11-23T03:53:40.724Z,85.93
2023-11-23T03:56:07.774Z,85.94
2023-11-23T03:58:34.529Z,85.23
2023-11-23T04:01:01.449Z,84.57
2023-11-23T04:03:28.340Z,83.87
2023-11-23T04:05:55.458Z,83.33
2023-11-23T04:08:24.205Z,83.74
2023-11-23T04:10:50.958Z,84.21
2023-11-23T04:13:17.739Z,84.06
2023-11-23T04:15:44.482Z,84.00
2023-11-23T04:18:11.253Z,84.00
2023-11-23T04:20:38.113Z,83.70
2023-11-23T04:23:04.829Z,83.63
2023-11-23T04:25:31.639Z,84.65
2023-11-23T04:30:30.702Z,85.26
2023-11-23T04:32:59.379Z,85.05
2023-11-23T04:35:26.703Z,85.09
2023-11-23T04:37:53.336Z,84.72
2023-11-23T04:40:20.245Z,84.92
2023-11-23T04:42:46.917Z,85.21
2023-11-23T04:45:13.689Z,85.24
2023-11-23T04:47:40.459Z,85.60
2023-11-23T04:50:07.496Z,84.92
2023-11-23T04:52:34.240Z,84.80
2023-11-23T04:55:00.958Z,84.38
2023-11-23T04:57:27.826Z,85.20
2023-11-23T04:59:54.607Z,85.22
2023-11-23T05:02:21.470Z,84.48
2023-11-23T05:07:21.700Z,86.74
2023-11-23T05:09:48.433Z,86.07
2023-11-23T05:12:15.203Z,86.07
2023-11-23T05:14:42.035Z,85.44
2023-11-23T05:17:08.827Z,84.77
2023-11-23T05:19:42.616Z,85.13
2023-11-23T05:22:10.097Z,83.82
2023-11-23T05:24:36.909Z,84.58
2023-11-23T05:27:03.902Z,83.96
2023-11-23T05:29:30.883Z,83.72
2023-11-23T05:31:57.635Z,84.08
2023-11-23T05:34:24.418Z,83.33
2023-11-23T05:36:51.201Z,83.87
2023-11-23T05:39:19.056Z,84.34
2023-11-23T05:41:46.079Z,83.18
2023-11-23T05:44:13.029Z,83.28
2023-11-23T05:46:40.382Z,83.69
2023-11-23T05:51:41.125Z,84.27
2023-11-23T05:54:07.908Z,84.45
2023-11-23T05:56:35.149Z,83.84
2023-11-23T05:59:01.924Z,84.17
2023-11-23T06:01:28.657Z,84.63
2023-11-23T06:03:55.474Z,85.26
2023-11-23T06:06:24.253Z,84.77
2023-11-23T06:08:51.743Z,85.22
2023-11-23T06:11:18.576Z,85.35
2023-11-23T06:13:47.238Z,85.30
2023-11-23T06:18:47.131Z,84.99
2023-11-23T06:21:14.052Z,84.88
2023-11-23T06:26:12.020Z,85.00
2023-11-23T06:28:39.512Z,84.65
2023-11-23T06:31:07.265Z,84.97
2023-11-23T06:33:34.559Z,84.73
2023-11-23T06:36:01.432Z,84.66
2023-11-23T06:38:29.922Z,85.39
2023-11-23T06:43:29.485Z,85.10
2023-11-23T06:45:56.679Z,85.07
2023-11-23T06:48:23.463Z,84.73
2023-11-23T06:50:50.243Z,84.21
2023-11-23T06:53:16.949Z,84.47
2023-11-23T06:55:44.345Z,84.08
2023-11-23T06:58:11.839Z,84.31
2023-11-23T07:00:40.001Z,85.19
2023-11-23T07:05:38.598Z,84.92
2023-11-23T07:08:06.301Z,85.45
2023-11-23T07:10:35.758Z,84.96
2023-11-23T07:13:02.814Z,85.00
2023-11-23T07:15:31.288Z,85.02
2023-11-23T07:18:01.132Z,84.63
2023-11-23T07:20:28.076Z,85.80
2023-11-23T07:22:55.065Z,86.63
2023-11-23T07:25:21.784Z,87.04
2023-11-23T07:27:48.504Z,95.96
2023-11-23T07:30:15.737Z,85.73
2023-11-23T07:32:42.617Z,86.28
2023-11-23T07:35:09.753Z,85.62
2023-11-23T07:37:36.761Z,85.44
2023-11-23T07:40:15.046Z,85.65
2023-11-23T07:42:44.424Z,85.45
2023-11-23T07:45:12.121Z,85.50
2023-11-23T07:50:17.366Z,85.55
2023-11-23T07:52:45.375Z,84.97
2023-11-23T07:55:14.028Z,85.27
2023-11-23T07:57:40.810Z,85.48
2023-11-23T08:00:09.695Z,84.66
2023-11-23T08:02:36.941Z,84.06
2023-11-23T08:07:37.528Z,84.36
2023-11-23T08:10:13.966Z,84.10
2023-11-23T08:12:40.796Z,84.27
2023-11-23T08:15:08.643Z,84.19
2023-11-23T08:17:35.332Z,83.32
2023-11-23T08:20:02.148Z,82.40
2023-11-23T08:22:28.961Z,81.36
2023-11-23T08:24:55.639Z,80.38
2023-11-23T08:27:24.101Z,79.69
2023-11-23T08:29:51.015Z,79.00
2023-11-23T08:32:17.805Z,77.88
2023-11-23T08:34:45.193Z,78.11
2023-11-23T08:37:12.062Z,78.62
2023-11-23T08:39:38.994Z,79.09
2023-11-23T08:42:06.349Z,79.55
2023-11-23T08:44:33.274Z,78.47
2023-11-23T08:47:01.785Z,78.75
2023-11-23T08:49:28.644Z,78.79
2023-11-23T08:51:55.358Z,79.32
2023-11-23T08:54:22.995Z,79.44
2023-11-23T08:56:49.807Z,79.44
2023-11-23T08:59:16.566Z,79.53
2023-11-23T09:01:46.624Z,80.54
2023-11-23T09:04:14.934Z,80.51
2023-11-23T09:06:41.986Z,80.73
2023-11-23T09:09:09.488Z,80.96
2023-11-23T09:11:36.239Z,80.92
2023-11-23T09:14:04.008Z,80.78
2023-11-23T09:16:31.250Z,80.73
2023-11-23T09:18:58.092Z,80.93
2023-11-23T09:21:25.567Z,81.35
2023-11-23T09:23:55.233Z,81.44
2023-11-23T09:26:22.064Z,81.21
2023-11-23T09:28:49.180Z,81.58
2023-11-23T09:31:16.409Z,81.28
2023-11-23T09:33:43.366Z,81.28
2023-11-23T09:36:13.082Z,81.10
2023-11-23T09:38:39.782Z,81.03
2023-11-23T09:41:12.023Z,80.94
2023-11-23T09:43:38.697Z,81.70
2023-11-23T09:46:06.026Z,81.31
2023-11-23T09:48:35.449Z,80.82
2023-11-23T09:51:02.584Z,80.73
2023-11-23T09:53:30.373Z,81.05
2023-11-23T09:55:57.900Z,81.24
2023-11-23T09:58:25.180Z,81.22
2023-11-23T10:00:52.448Z,81.68
2023-11-23T10:03:24.477Z,80.95
2023-11-23T10:05:52.483Z,81.48
2023-11-23T10:08:19.839Z,81.88
2023-11-23T10:10:46.592Z,81.58
2023-11-23T10:13:13.372Z,82.12
2023-11-23T10:15:40.111Z,82.02
2023-11-23T10:18:08.608Z,81.72
2023-11-23T10:20:39.399Z,82.08
2023-11-23T10:23:09.209Z,81.52
2023-11-23T10:25:37.207Z,81.17
2023-11-23T10:28:07.421Z,81.42
2023-11-23T10:30:35.862Z,81.22
2023-11-23T10:33:02.713Z,81.63
2023-11-23T10:35:42.661Z,81.76
2023-11-23T10:38:09.775Z,82.24
2023-11-23T10:40:37.135Z,81.84
2023-11-23T10:43:04.602Z,82.02
2023-11-23T10:45:37.098Z,82.00
2023-11-23T10:50:39.226Z,82.05
2023-11-23T10:53:07.057Z,82.10
2023-11-23T10:58:17.609Z,82.57
2023-11-23T11:00:45.928Z,82.33
2023-11-23T11:08:31.397Z,81.22
2023-11-23T11:10:59.132Z,81.08
2023-11-23T11:13:27.116Z,81.04
2023-11-23T11:15:58.366Z,80.99
2023-11-23T11:18:27.381Z,81.71
2023-11-23T11:21:14.272Z,81.85
2023-11-23T11:23:41.945Z,82.04
2023-11-23T11:26:14.130Z,82.46
2023-11-23T11:28:41.609Z,83.13
2023-11-23T11:31:11.406Z,82.74
2023-11-23T11:33:39.258Z,82.57
2023-11-23T11:36:08.956Z,82.10
2023-11-23T11:38:40.837Z,82.63
2023-11-23T11:41:11.259Z,82.51
2023-11-23T11:43:38.220Z,83.43
2023-11-23T11:46:06.649Z,82.71
2023-11-23T11:48:33.632Z,83.23
2023-11-23T11:51:01.012Z,82.46
2023-11-23T11:53:28.090Z,82.85
2023-11-23T11:55:55.744Z,82.46
2023-11-23T11:58:22.557Z,82.53
2023-11-23T12:00:50.048Z,82.52
2023-11-23T12:03:17.731Z,82.11
2023-11-23T12:05:44.519Z,81.97
2023-11-23T12:08:11.260Z,81.73
2023-11-23T12:10:41.678Z,81.71
2023-11-23T12:13:16.229Z,81.88
2023-11-23T12:15:45.684Z,82.49
2023-11-23T12:18:14.643Z,82.52
2023-11-23T12:20:42.846Z,82.31
2023-11-23T12:23:10.104Z,81.70
2023-11-23T12:25:36.980Z,82.45
2023-11-23T12:28:04.099Z,81.30
2023-11-23T12:30:31.296Z,81.64
2023-11-23T12:33:01.805Z,82.20
2023-11-23T12:35:29.275Z,81.67
2023-11-23T12:37:57.110Z,81.78
2023-11-23T12:40:23.835Z,81.11
2023-11-23T12:42:51.466Z,81.57
2023-11-23T12:45:18.267Z,81.78
2023-11-23T12:47:45.229Z,81.03
2023-11-23T12:50:12.580Z,81.80
2023-11-23T12:52:42.672Z,80.96
2023-11-23T12:57:44.504Z,82.23
2023-11-23T13:00:15.168Z,81.95
2023-11-23T13:02:42.861Z,82.56
2023-11-23T13:05:13.910Z,82.56
2023-11-23T13:07:40.974Z,83.10
2023-11-23T13:10:10.714Z,83.36
2023-11-23T13:12:38.139Z,84.24
2023-11-23T13:15:13.520Z,84.75
2023-11-23T13:17:41.725Z,84.67
2023-11-23T13:20:12.043Z,84.88
2023-11-23T13:22:38.820Z,84.96
2023-11-23T13:27:41.948Z,84.92
2023-11-23T13:30:10.277Z,86.26
2023-11-23T13:32:39.893Z,86.66
2023-11-23T13:35:08.492Z,86.35
2023-11-23T13:37:35.357Z,86.36
2023-11-23T13:40:05.415Z,87.05
2023-11-23T13:42:32.154Z,87.56
2023-11-23T13:44:58.910Z,87.90
2023-11-23T13:47:26.514Z,87.95
2023-11-23T13:49:53.267Z,89.22
2023-11-23T13:52:20.295Z,89.28
2023-11-23T13:54:48.936Z,88.70
2023-11-23T13:57:16.121Z,89.17
2023-11-23T13:59:42.889Z,90.15
2023-11-23T14:02:09.798Z,90.03
2023-11-23T14:04:36.924Z,89.70
2023-11-23T14:07:03.676Z,89.40
2023-11-23T14:09:32.207Z,89.65
2023-11-23T14:11:59.065Z,91.10
2023-11-23T14:14:25.757Z,90.75
2023-11-23T14:16:52.554Z,90.96
2023-11-23T14:19:21.278Z,90.98
2023-11-23T14:21:48.793Z,91.17
2023-11-23T14:24:17.008Z,91.41
2023-11-23T14:26:44.063Z,91.27
2023-11-23T14:29:12.656Z,90.94
2023-11-23T14:31:39.536Z,91.48
2023-11-23T14:34:07.326Z,91.12
2023-11-23T14:36:34.315Z,91.67
2023-11-23T14:39:02.027Z,92.09
2023-11-23T14:41:28.939Z,92.82
2023-11-23T14:43:55.860Z,93.55
2023-11-23T14:46:22.846Z,93.23
2023-11-23T14:48:49.990Z,93.33
2023-11-23T14:51:17.240Z,93.10
2023-11-23T14:53:44.684Z,93.09
2023-11-23T14:56:11.521Z,93.50
2023-11-23T14:58:38.582Z,92.76
2023-11-23T15:01:05.542Z,92.88
2023-11-23T15:03:32.424Z,93.08
2023-11-23T15:05:59.246Z,92.42
2023-11-23T15:08:25.969Z,92.46
2023-11-23T15:13:32.338Z,92.64
2023-11-23T15:16:03.028Z,92.20
2023-11-23T15:18:32.148Z,92.51
2023-11-23T15:21:00.752Z,93.69
2023-11-23T15:23:27.541Z,94.29
2023-11-23T15:25:55.636Z,94.36
2023-11-23T15:28:23.094Z,93.82
2023-11-23T15:30:50.125Z,93.65
2023-11-23T15:33:17.987Z,92.94
2023-11-23T15:38:22.954Z,93.02
2023-11-23T15:40:50.293Z,92.11
2023-11-23T15:43:17.558Z,91.19
2023-11-23T15:45:44.740Z,90.36
2023-11-23T15:48:12.590Z,91.06
2023-11-23T15:50:41.902Z,90.67
2023-11-23T15:53:08.678Z,90.03
2023-11-23T15:55:37.714Z,89.97
2023-11-23T15:58:04.780Z,89.64
2023-11-23T16:00:33.221Z,90.11
2023-11-23T16:03:00.922Z,90.03
2023-11-23T16:05:29.126Z,89.95
2023-11-23T16:07:56.694Z,90.25
2023-11-23T16:10:23.573Z,90.21
2023-11-23T16:12:50.449Z,90.13
2023-11-23T16:15:18.053Z,90.09
2023-11-23T16:17:45.635Z,90.76
2023-11-23T16:20:16.682Z,91.11
2023-11-23T16:25:19.127Z,90.70
2023-11-23T16:27:46.365Z,90.61
2023-11-23T16:30:15.453Z,90.40
2023-11-23T16:32:43.650Z,90.33
2023-11-23T16:35:13.285Z,90.70
2023-11-23T16:37:40.243Z,90.42
2023-11-23T16:40:11.762Z,90.44
2023-11-23T16:42:40.862Z,90.30
2023-11-23T16:45:08.569Z,90.58
2023-11-23T16:47:36.325Z,90.88
2023-11-23T16:50:03.369Z,90.68
2023-11-23T16:52:30.160Z,90.97
2023-11-23T16:54:57.358Z,91.18
2023-11-23T16:57:24.160Z,90.58
2023-11-23T16:59:50.881Z,90.77
2023-11-23T17:02:18.053Z,90.82
2023-11-23T17:04:49.233Z,90.59
2023-11-23T17:07:18.251Z,90.61
2023-11-23T17:09:47.459Z,90.45
2023-11-23T17:12:14.195Z,90.74
2023-11-23T17:14:40.971Z,90.30
2023-11-23T17:17:08.185Z,89.93
2023-11-23T17:19:34.950Z,90.35
2023-11-23T17:22:01.970Z,90.32
2023-11-23T17:24:28.914Z,90.33
2023-11-23T17:26:55.856Z,90.03
2023-11-23T17:29:22.637Z,90.44
2023-11-23T17:31:55.477Z,89.98
2023-11-23T17:34:23.537Z,89.74
2023-11-23T17:36:50.352Z,89.69
2023-11-23T17:39:17.349Z,89.36
2023-11-23T17:41:45.964Z,89.48
2023-11-23T17:44:14.161Z,89.35
2023-11-23T17:46:41.020Z,89.50
2023-11-23T17:49:07.938Z,89.58
2023-11-23T17:51:34.776Z,90.71
2023-11-23T17:54:01.989Z,90.10
2023-11-23T17:56:28.728Z,89.90
2023-11-23T17:59:08.499Z,90.96
2023-11-23T18:01:42.199Z,90.13
2023-11-23T18:04:09.027Z,90.66
2023-11-23T18:06:36.017Z,89.53
2023-11-23T18:09:02.866Z,89.00
2023-11-23T18:11:29.589Z,88.89
2023-11-23T18:13:56.365Z,88.66
2023-11-23T18:16:23.405Z,89.07
2023-11-23T18:18:50.159Z,89.10
2023-11-23T18:21:17.004Z,88.88
2023-11-23T18:23:44.076Z,89.01
2023-11-23T18:26:11.332Z,88.76
2023-11-23T18:28:38.182Z,88.99
2023-11-23T18:31:05.553Z,88.51
2023-11-23T18:33:36.083Z,88.44
2023-11-23T18:36:03.933Z,88.70
2023-11-23T18:38:31.123Z,88.33
2023-11-23T18:40:57.852Z,88.23
2023-11-23T18:43:24.591Z,88.03
2023-11-23T18:45:51.411Z,88.29
2023-11-23T18:48:18.839Z,88.16
2023-11-23T18:50:45.829Z,88.06
2023-11-23T18:53:12.734Z,87.90
2023-11-23T18:55:39.496Z,88.07
2023-11-23T18:58:06.577Z,88.03
2023-11-23T19:00:34.104Z,88.00
2023-11-23T19:03:02.664Z,89.24
2023-11-23T19:05:29.453Z,87.89
2023-11-23T19:07:56.231Z,87.74
2023-11-23T19:13:06.296Z,87.69
2023-11-23T19:18:14.651Z,89.80
2023-11-23T19:20:41.883Z,90.86
2023-11-23T19:23:08.870Z,91.80
2023-11-23T19:25:36.021Z,93.07
2023-11-23T19:28:03.045Z,93.61
2023-11-23T19:33:06.430Z,94.35
2023-11-23T19:35:33.446Z,95.26
2023-11-23T19:38:00.425Z,95.26
2023-11-23T19:40:27.299Z,95.22
2023-11-23T19:42:55.266Z,95.03
2023-11-23T19:45:22.548Z,95.08
2023-11-23T19:47:49.695Z,95.44
2023-11-23T19:52:52.780Z,95.68
2023-11-23T19:55:19.507Z,95.17
2023-11-23T19:57:46.258Z,94.40
2023-11-23T20:00:15.342Z,94.20
2023-11-23T20:02:42.484Z,94.41
2023-11-23T20:05:09.827Z,93.89
2023-11-23T20:07:36.788Z,94.70
2023-11-23T20:10:03.962Z,93.85
2023-11-23T20:12:30.786Z,94.48
2023-11-23T20:14:57.575Z,93.88
2023-11-23T20:17:26.242Z,93.76
2023-11-23T20:19:53.143Z,94.25
2023-11-23T20:24:58.266Z,93.44
2023-11-23T20:27:25.107Z,94.33
2023-11-23T20:29:51.915Z,94.32
2023-11-23T20:32:18.642Z,94.53
2023-11-23T20:34:45.952Z,94.92
2023-11-23T20:37:12.968Z,95.04
2023-11-23T20:39:40.138Z,94.99
2023-11-23T20:42:07.322Z,94.72
2023-11-23T20:44:34.823Z,94.27
2023-11-23T20:47:01.508Z,93.98
2023-11-23T20:51:59.863Z,94.59
2023-11-23T20:54:26.683Z,94.42
2023-11-23T20:56:57.674Z,94.68
2023-11-23T20:59:25.714Z,94.39
2023-11-23T21:01:53.382Z,95.19
2023-11-23T21:04:26.135Z,95.39
2023-11-23T21:07:01.696Z,95.75
2023-11-23T21:09:29.939Z,96.91
2023-11-23T21:11:57.122Z,97.34
2023-11-23T21:14:24.929Z,97.48
2023-11-23T21:16:51.706Z,97.81
2023-11-23T21:19:18.837Z,97.41
2023-11-23T21:21:45.865Z,97.14
2023-11-23T21:24:14.487Z,96.94
2023-11-23T21:26:42.266Z,97.09
2023-11-23T21:29:10.879Z,97.39
2023-11-23T21:31:38.016Z,96.93
2023-11-23T21:34:05.237Z,96.66
2023-11-23T21:36:32.234Z,96.59
2023-11-23T21:41:30.479Z,96.82
2023-11-23T21:43:57.311Z,96.17
2023-11-23T21:46:25.936Z,95.91
2023-11-23T21:48:53.841Z,95.99
2023-11-23T21:51:29.868Z,96.28
2023-11-23T21:53:59.738Z,96.10
2023-11-23T21:56:26.547Z,96.12
2023-11-23T22:01:25.004Z,95.04
2023-11-23T22:03:52.064Z,94.99
2023-11-23T22:06:19.220Z,94.95
2023-11-23T22:08:45.986Z,94.87
2023-11-23T22:11:14.099Z,94.97
2023-11-23T22:13:41.579Z,95.27
2023-11-23T22:16:08.322Z,95.46
2023-11-23T22:18:36.283Z,95.07
2023-11-23T22:23:38.680Z,94.85
2023-11-23T22:26:05.923Z,94.77
2023-11-23T22:28:33.077Z,94.34
2023-11-23T22:31:01.647Z,93.93
2023-11-23T22:33:28.751Z,94.04
2023-11-23T22:35:55.661Z,93.70
2023-11-23T22:38:24.132Z,92.97
2023-11-23T22:40:51.075Z,93.51
2023-11-23T22:43:18.042Z,92.90
2023-11-23T22:45:44.992Z,93.02
2023-11-23T22:48:11.701Z,92.69
2023-11-23T22:50:40.242Z,92.71
2023-11-23T22:53:07.096Z,92.85
2023-11-23T22:55:33.818Z,93.25
2023-11-23T22:58:00.565Z,93.34
2023-11-23T23:00:29.468Z,94.06
2023-11-23T23:02:56.456Z,93.64
2023-11-23T23:05:26.529Z,92.84
2023-11-23T23:07:58.127Z,93.62
2023-11-23T23:10:26.320Z,93.43
2023-11-23T23:12:56.716Z,94.46
2023-11-23T23:15:24.350Z,97.22
2023-11-23T23:17:53.033Z,97.07
2023-11-23T23:20:20.106Z,99.71
2023-11-23T23:22:46.877Z,99.08
2023-11-23T23:25:14.289Z,100.00
2023-11-23T23:27:41.785Z,100.00
2023-11-23T23:30:10.454Z,100.00
2023-11-23T23:32:38.364Z,100.00
2023-11-23T23:35:11.278Z,100.00
2023-11-23T23:37:39.276Z,100.00
2023-11-23T23:40:10.813Z,100.00
2023-11-23T23:42:38.234Z,100.00
2023-11-23T23:45:06.184Z,100.00
2023-11-23T23:47:32.923Z,100.00
2023-11-23T23:49:59.695Z,100.00
2023-11-23T23:52:26.394Z,100.00
2023-11-23T23:57:24.479Z,100.00
2023-11-23T23:59:51.260Z,100.00
